Gregor Schulz

Scout - Köln
3 Apr 2027
Saturday
Process

Personality

Adaptability (1) Ambition (11) Controversy (7) Loyalty (9) Pressure (3) Professionalism (20) Sportsmanship (15) Temperament (5)

Profile

Coaching Style Democratic
License National B
Determination 12
Man Management 8
Motivating 9
Discipline 14
Job Satisfaction
67%
Fatigue
0%
Role Scout
Wage 87.0K p/w
Contract 14.03.2030

Performance

Behaviour Good
Training Effectiveness
33%
Player Development
55%
Injury Prevention
55%
Tactical Implementation
45%

Recent Events

Attended a recruitment meeting now
Assessed a player now
Assessed a player 7d ago
Assessed a player 7d ago
Assessed a player 7d ago
Assessed a player 7d ago
Assessed a player 7d ago
Assessed a player 7d ago

Currently Monitoring

173
Player Club Status Ability Confidence Watched Last Observed Latest Vote
Luke Thomas Leicester City Active 121 / 123 40% 4 01.04.2027 -
Stav Lemkin Twente Active 125 / 122 40% 1 01.04.2027 -
Stiven Shpendi Empoli Active 112 / 129 40% 1 31.03.2027 -
Dylan Nandín Arouca Active 112 / 115 40% 1 31.03.2027 -
Efraín Álvarez Guadalajara Active 147 / 126 40% 1 30.03.2027 -
Arsenii Batahov Trabzonspor Active 128 / 135 40% 1 27.03.2027 -
Richard Ledezma Guadalajara Active 131 / 137 40% 1 27.03.2027 -
Johnson Amuzu Berekum Chelsea Active 73 / 88 40% 2 26.03.2027 -
Mattia Zanotti Lugano Active 123 / 140 40% 1 26.03.2027 -
Salem Al Kamali Al Jazira Active 107 / 106 40% 1 26.03.2027 -
Federico Pereira Toluca Active 153 / 131 40% 4 24.03.2027 -
Vinicius Tobias Shakhtar Active 121 / 125 40% 1 24.03.2027 -
Luis Vázquez Birmingham Active 135 / 129 40% 3 23.03.2027 -
Adu Ares Eibar Active 129 / 130 40% 2 23.03.2027 -
Chuki Werder Bremen Active 125 / 118 40% 1 23.03.2027 -
Abdoulie Ceesay St. Pauli Active 104 / 106 40% 1 23.03.2027 -
Enis Destan Konyaspor Active 115 / 117 40% 2 21.03.2027 -
Lewis McCann Fleetwood Town Active 107 / 107 40% 1 21.03.2027 -
Ousmane Camara Castellón Active 119 / 129 40% 2 20.03.2027 -
Vinícius Lopes Santa Clara Active 115 / 127 40% 5 19.03.2027 -
David Romero Parma Active 128 / 128 40% 1 18.03.2027 -
Philippe Keny Zurich Active 119 / 110 40% 1 17.03.2027 -
Miguel De la Fuente Almería Active 114 / 121 40% 1 17.03.2027 -
Juan Manuel Boselli Krasnodar Active 106 / 111 40% 1 17.03.2027 -
Pedro Henrique Shakhtar Active 147 / 145 40% 1 17.03.2027 -
Sebastián Cáceres Club America Active 123 / 150 40% 2 15.03.2027 -
Diego Costa Krasnodar Active 145 / 138 40% 2 15.03.2027 -
Jalen Blesa Rio Ave Active 117 / 116 40% 1 15.03.2027 -
Tamerlan Musaev CSKA Moscow Active 113 / 120 40% 2 13.03.2027 -
Allahyar Sayyadmanesh Lech Active 139 / 128 40% 3 13.03.2027 -
Volodymyr Brazhko Dynamo Kyiv Active 132 / 123 40% 2 13.03.2027 -
Rubens Dinamo Moscow Active 116 / 127 40% 1 13.03.2027 -
Jordan Holsgrove Estoril Praia Active 137 / 129 40% 2 12.03.2027 -
Felipe Augusto Zenit Active 131 / 149 40% 1 12.03.2027 -
José Bica Leixões Active 110 / 107 40% 1 12.03.2027 -
Vitinho Botafogo Active 144 / 144 40% 3 09.03.2027 -
Hugo Guillamón Gijón Active 133 / 123 40% 1 09.03.2027 -
Jalen Hawkins ADO Den Haag Active 116 / 122 40% 1 09.03.2027 -
Duk Atlas Active 112 / 102 40% 1 09.03.2027 -
Ozziel Herrera Tigres Active 140 / 118 40% 2 07.03.2027 -
Luciano Juba Bahia Active 135 / 126 40% 2 07.03.2027 -
Mandela Keita Parma Active 137 / 128 40% 1 07.03.2027 -
Rumarn Burrell Queens Park Rangers Active 126 / 128 40% 1 07.03.2027 -
Bertuğ Yıldırım Basaksehir Active 120 / 125 40% 2 06.03.2027 -
Simone Rabbi Ravenna Active 114 / 100 40% 1 06.03.2027 -
Dylan Vente Heerenveen Active 118 / 122 40% 1 05.03.2027 -
Luka Kulenović Heracles Active 108 / 112 40% 1 05.03.2027 -
Óscar Aranda Espanyol Active 133 / 137 40% 1 03.03.2027 -
Ivan Bendera Epicentr Active 77 / 93 40% 1 03.03.2027 -
Lassina Traoré Shakhtar Active 114 / 118 40% 1 03.03.2027 -
César Araújo Tigres Active 135 / 132 40% 1 02.03.2027 -
Adrian Benedyczak Kasimpasa Active 128 / 130 40% 1 02.03.2027 -
Sampson Dweh Viktoria Plzen Active 150 / 122 40% 1 01.03.2027 -
Zaydou Youssouf Al-Fateh Active 131 / 144 40% 1 01.03.2027 -
Richard Koné Queens Park Rangers Active 125 / 120 40% 2 28.02.2027 -
Juan-José Perea Zurich Active 122 / 120 40% 1 28.02.2027 -
Donát Bárány ADO Den Haag Active 112 / 119 40% 1 28.02.2027 -
Yira Sor Racing Genk Active 115 / 120 40% 1 28.02.2027 -
Luca Orellano Monterrey Active 124 / 123 40% 2 25.02.2027 -
Ramón Juárez Club America Active 132 / 152 40% 2 25.02.2027 -
Anton Kade FC Augsburg Active 137 / 137 40% 1 25.02.2027 -
Fidel Ambríz Monterrey Active 143 / 120 40% 2 23.02.2027 -
Alexandr Chernikov Krasnodar Active 128 / 142 40% 1 23.02.2027 -
Eliás Montiel Pachuca Active 136 / 127 40% 1 22.02.2027 -
Lorenzo Amatucci Deportivo La Coruña Active 135 / 129 40% 1 22.02.2027 -
Nacer Tielemans Mouscron Active 124 / 131 40% 2 21.02.2027 -
Facundo Garcés Alavés Active 129 / 125 40% 1 21.02.2027 -
Yassine Kechta Leganés Active 125 / 123 40% 1 17.02.2027 -
Aral Şimşir Trabzonspor Active 129 / 123 40% 2 16.02.2027 -
Ilay Camara Anderlecht Active 141 / 123 40% 2 14.02.2027 -
Danil Glebov Dinamo Moscow Active 125 / 126 40% 1 13.02.2027 -
Andrew Omobamidele RC Strasbourg Active 123 / 133 40% 1 13.02.2027 -
Edoardo Bove Watford Active 132 / 122 40% 3 12.02.2027 -
Gabriel Sara Galatasaray Active 144 / 142 40% 1 12.02.2027 -
Sébastien Durand Tours Active 135 / 141 40% 1 11.02.2027 -
Mahamadou Doumbia Al-Ittihad Active 147 / 141 40% 1 11.02.2027 -
Tyrell Malacia Leicester City Active 127 / 136 40% 1 10.02.2027 -
Israel Reyes Club America Active 136 / 132 40% 1 09.02.2027 -
Jan Schöppner Heidenheim Active 124 / 114 40% 1 09.02.2027 -
Lilian Brassier Stade Rennais Active 150 / 130 40% 1 07.02.2027 -
Michy Fellaini KV Oostende Active 128 / 134 40% 2 06.02.2027 -
Adriano Bertaccini Anderlecht Active 129 / 116 40% 2 05.02.2027 -
Cristian Shpendi Cesena Active 138 / 135 40% 1 05.02.2027 -
Danylo Sikan Anderlecht Active 137 / 132 40% 2 04.02.2027 -
Aiham Ousou Charleroi Active 127 / 134 40% 1 03.02.2027 -
Caio Alexandre Bahia Active 141 / 137 40% 1 03.02.2027 -
Fabian Rieder FC Augsburg Active 137 / 147 40% 1 03.02.2027 -
Alex Robertson Cardiff City Active 131 / 122 40% 1 03.02.2027 -
Zakaria El Ouahdi Racing Genk Active 124 / 137 40% 1 01.02.2027 -
Metinho Basel Active 134 / 138 40% 2 27.01.2027 -
Christian Krasnodar Active 134 / 129 40% 1 27.01.2027 -
Batista Mendy Trabzonspor Active 144 / 145 40% 1 24.01.2027 -
Mohamed Simakan Al-Nassr Active 151 / 133 40% 1 23.01.2027 -
Lucas Piton Vasco da Gama Active 133 / 130 40% 2 22.01.2027 -
Lorenzo Pirola Olympiacos Active 151 / 118 40% 1 22.01.2027 -
Michy Lukaku Mouscron Active 136 / 128 40% 1 18.01.2027 -
Dan-Axel Zagadou VfB Stuttgart Active 129 / 134 58% 1 11.01.2027 -
Jamie Cumming Oxford United Active 115 / 126 40% 4 28.12.2026 -
Nicolás Sumavil Platense Active 124 / 107 40% 1 28.12.2026 -
Justin Hammel Grasshopper Active 125 / 125 40% 5 26.12.2026 -
Heorhii Yermakov Metalist Active 117 / 115 40% 1 26.12.2026 -
Jakub Stolarczyk Leicester City Active 136 / 122 40% 2 25.12.2026 -
Mads Hedenstad AGF Active 133 / 131 40% 2 24.12.2026 -
Andreas Jungdal Westerlo Active 131 / 116 40% 1 24.12.2026 -
Liam Varela Veracruz Active 138 / 128 40% 1 21.12.2026 -
Jesús Orozco Chiquete Cruz Azul Active 117 / 130 40% 1 21.12.2026 -
Gabriel Brazão Santos Active 132 / 130 40% 2 20.12.2026 -
Denys Ihnatenko Livyi Bereh Active 96 / 118 40% 1 20.12.2026 -
Marvin Keller Young Boys Lost 133 / 129 40% 4 19.12.2026 -
Robin Risser RC Lens Active 133 / 146 40% 1 19.12.2026 -
Carl Rushworth Coventry City Active 133 / 140 40% 2 18.12.2026 -
Mio Backhaus SC Freiburg Active 137 / 141 40% 1 18.12.2026 -
Tyreece Campbell Charlton Athletic Active 114 / 126 40% 1 17.12.2026 -
Michael Cooper Sheffield United Active 140 / 136 40% 5 15.12.2026 -
Bećir Omeragić Basel Active 129 / 140 40% 1 15.12.2026 -
Sergio Barreto Pachuca Active 115 / 147 40% 1 15.12.2026 -
Iñaki Peña Panathinaikos Active 128 / 131 40% 1 14.12.2026 -
Bernardo Fontes Braga Active 134 / 129 40% 1 10.12.2026 -
Guilherme Fernandes Córdoba Active 124 / 121 40% 1 10.12.2026 -
Ignacio Russo Tigre Active 116 / 131 40% 1 09.12.2026 -
Marcos Paulo Juventude Active 115 / 116 40% 1 09.12.2026 -
Ilyas Chouaref Sion Active 111 / 122 40% 2 04.12.2026 -
Nikita Kokarev Krylya Sovetov Active 101 / 121 40% 1 04.12.2026 -
Bilal Bayazıt Kayserispor Active 129 / 126 40% 1 04.12.2026 -
Nathan Fogaça Fortaleza Active 133 / 131 40% 1 03.12.2026 -
Petter Nosa Dahl Rapid Wien Active 117 / 130 40% 1 03.12.2026 -
Josias Lukembila Sion Active 121 / 108 40% 2 01.12.2026 -
Derry Scherhant SC Freiburg Active 122 / 131 40% 1 30.11.2026 -
Chupete Málaga Active 134 / 131 40% 1 29.11.2026 -
Marlon Gomes Shakhtar Active 125 / 120 40% 1 28.11.2026 -
Brenner Vasco da Gama Active 133 / 124 40% 1 26.11.2026 -
Andrin Hunziker St. Gallen Lost 120 / 120 40% 1 26.11.2026 -
Ştefan Târnovanu FCSB Active 116 / 134 40% 1 25.11.2026 -
Sondre Langås Derby County Active 123 / 123 40% 1 24.11.2026 -
Bruno Gomes Internacional Active 138 / 140 40% 1 24.11.2026 -
Dejan Djokic Vaduz Active 102 / 90 40% 1 23.11.2026 -
Jefry Zapata Once Caldas Active 123 / 120 40% 1 21.11.2026 -
Matteo di Giusto Luzern Active 126 / 120 40% 1 19.11.2026 -
Rocco Vata Watford Active 126 / 124 40% 1 19.11.2026 -
Rome-Jayden Owusu-Oduro AZ Active 132 / 139 40% 1 17.11.2026 -
Anthony Patterson Wrexham Active 121 / 123 40% 1 16.11.2026 -
Tomoki Hayakawa Feyenoord Active 134 / 128 40% 1 16.11.2026 -
Jakub Surovčík Sparta Prague Active 102 / 122 40% 1 15.11.2026 -
Marc Aguado Elche Active 122 / 122 40% 1 14.11.2026 -
Isma Ruiz Córdoba Active 132 / 139 40% 1 11.11.2026 -
Erik Lira Cruz Azul Active 119 / 151 40% 1 11.11.2026 -
Leo Román Deportivo La Coruña Active 145 / 144 40% 1 07.11.2026 -
Franco Fagúndez Estudiantes Active 117 / 124 40% 1 06.11.2026 -
Josh Coburn Millwall Active 124 / 130 40% 1 06.11.2026 -
Christian Früchtl Red Bull Salzburg Active 106 / 116 40% 2 05.11.2026 -
Egoitz Arana Real Sociedad Active 98 / 97 40% 1 05.11.2026 -
Karl Hein Werder Bremen Active 132 / 134 40% 2 03.11.2026 -
Felipe Zenobio Tigre Active 135 / 137 40% 1 03.11.2026 -
Efraín Álvarez Guadalajara Lost 144 / 115 40% 1 02.11.2026 -
Ben Voll St. Pauli Active 125 / 118 40% 2 30.10.2026 -
Jonmi Magunagoitia Eibar Active 123 / 121 40% 1 27.10.2026 -
Ruslan Neshcheret Dynamo Kyiv Active 127 / 128 40% 1 20.10.2026 -
Grégoire Coudert Burnley Active 133 / 134 40% 2 19.10.2026 -
Enzo Vázquez Central Norte Active 110 / 109 40% 1 15.10.2026 -
Dmytro Riznyk Shakhtar Active 152 / 131 40% 1 12.10.2026 -
Gonzalo Crettaz NEC Active 137 / 134 40% 1 08.10.2026 -
Sem Westerveld Zaragoza Active 111 / 125 40% 1 30.09.2026 -
Niklas Steffen Thun Active 125 / 110 40% 2 29.09.2026 -
Santino Barbi Talleres Active 106 / 114 40% 1 22.09.2026 -
Chris Brady Chicago Fire Active 135 / 114 40% 1 14.09.2026 -
Ivan Toney Al-Ahli Lost 155 / 151 40% 1 27.08.2026 -
Ricardo Horta Braga Active 145 / 155 40% 1 27.08.2026 -
Che Adams Torino Active 139 / 138 40% 1 25.08.2026 -
Alexis Vega Toluca Active 132 / 137 40% 1 25.08.2026 -
Mohamed-Ali Cho Hull City Active 139 / 141 40% 1 06.08.2026 -
Martijn Kaars St. Pauli Active 130 / 115 58% 1 03.08.2026 -
Umeh Emmanuel Zurich Active 103 / 125 40% 1 01.08.2026 -
Tim Lemperle TSG Hoffenheim Active 147 / 130 40% 1 01.08.2026 -